sensor_id;sensor_type;location;lat;lon;timestamp;P1;durP1;ratioP1;P2;durP2;ratioP2
65045;SDS011;54657;52.022;5.534;2022-12-13T00:01:30;21.65;;;10.60;;
65045;SDS011;54657;52.022;5.534;2022-12-13T00:03:58;24.30;;;11.20;;
65045;SDS011;54657;52.022;5.534;2022-12-13T00:06:25;22.15;;;10.85;;
65045;SDS011;54657;52.022;5.534;2022-12-13T00:08:51;20.05;;;10.57;;
65045;SDS011;54657;52.022;5.534;2022-12-13T00:11:17;22.67;;;10.05;;
65045;SDS011;54657;52.022;5.534;2022-12-13T00:13:43;17.38;;;9.90;;
65045;SDS011;54657;52.022;5.534;2022-12-13T00:16:13;20.92;;;11.30;;
65045;SDS011;54657;52.022;5.534;2022-12-13T00:18:40;18.75;;;10.05;;
65045;SDS011;54657;52.022;5.534;2022-12-13T00:21:06;20.73;;;10.00;;
65045;SDS011;54657;52.022;5.534;2022-12-13T00:23:33;20.65;;;11.40;;
65045;SDS011;54657;52.022;5.534;2022-12-13T00:26:03;20.67;;;10.50;;
65045;SDS011;54657;52.022;5.534;2022-12-13T00:28:30;21.58;;;10.75;;
65045;SDS011;54657;52.022;5.534;2022-12-13T00:30:57;21.88;;;10.38;;
65045;SDS011;54657;52.022;5.534;2022-12-13T00:33:24;20.83;;;10.20;;
65045;SDS011;54657;52.022;5.534;2022-12-13T00:35:50;19.55;;;10.18;;
65045;SDS011;54657;52.022;5.534;2022-12-13T00:38:16;22.40;;;10.05;;
65045;SDS011;54657;52.022;5.534;2022-12-13T00:40:42;19.77;;;10.32;;
65045;SDS011;54657;52.022;5.534;2022-12-13T00:43:07;21.45;;;10.20;;
65045;SDS011;54657;52.022;5.534;2022-12-13T00:45:33;17.88;;;9.55;;
65045;SDS011;54657;52.022;5.534;2022-12-13T00:47:59;19.92;;;10.07;;
65045;SDS011;54657;52.022;5.534;2022-12-13T00:50:24;21.20;;;10.75;;
65045;SDS011;54657;52.022;5.534;2022-12-13T00:52:50;20.98;;;10.35;;
65045;SDS011;54657;52.022;5.534;2022-12-13T00:55:16;18.92;;;9.65;;
65045;SDS011;54657;52.022;5.534;2022-12-13T00:57:42;16.48;;;9.63;;
65045;SDS011;54657;52.022;5.534;2022-12-13T01:00:07;18.98;;;9.65;;
65045;SDS011;54657;52.022;5.534;2022-12-13T01:02:34;16.05;;;9.27;;
65045;SDS011;54657;52.022;5.534;2022-12-13T01:04:59;22.42;;;9.75;;
65045;SDS011;54657;52.022;5.534;2022-12-13T01:07:25;20.17;;;8.98;;
65045;SDS011;54657;52.022;5.534;2022-12-13T01:09:51;16.27;;;8.73;;
65045;SDS011;54657;52.022;5.534;2022-12-13T01:12:17;19.05;;;9.68;;
65045;SDS011;54657;52.022;5.534;2022-12-13T01:14:42;20.60;;;8.93;;
65045;SDS011;54657;52.022;5.534;2022-12-13T01:17:08;17.48;;;8.80;;
65045;SDS011;54657;52.022;5.534;2022-12-13T01:19:33;17.35;;;10.15;;
65045;SDS011;54657;52.022;5.534;2022-12-13T01:22:00;16.73;;;8.63;;
65045;SDS011;54657;52.022;5.534;2022-12-13T01:24:29;14.48;;;8.57;;
65045;SDS011;54657;52.022;5.534;2022-12-13T01:26:55;16.40;;;8.60;;
65045;SDS011;54657;52.022;5.534;2022-12-13T01:29:22;19.58;;;10.07;;
65045;SDS011;54657;52.022;5.534;2022-12-13T01:31:48;19.85;;;9.10;;
65045;SDS011;54657;52.022;5.534;2022-12-13T01:34:15;19.67;;;9.30;;
65045;SDS011;54657;52.022;5.534;2022-12-13T01:36:44;17.33;;;8.70;;
65045;SDS011;54657;52.022;5.534;2022-12-13T01:39:11;15.93;;;9.02;;
65045;SDS011;54657;52.022;5.534;2022-12-13T01:41:38;16.02;;;8.55;;
65045;SDS011;54657;52.022;5.534;2022-12-13T01:44:05;14.50;;;8.48;;
65045;SDS011;54657;52.022;5.534;2022-12-13T01:46:51;18.60;;;8.82;;
65045;SDS011;54657;52.022;5.534;2022-12-13T01:49:17;18.98;;;8.60;;
65045;SDS011;54657;52.022;5.534;2022-12-13T01:51:53;16.38;;;9.15;;
65045;SDS011;54657;52.022;5.534;2022-12-13T01:54:24;25.25;;;8.93;;
65045;SDS011;54657;52.022;5.534;2022-12-13T01:56:57;14.07;;;8.10;;
65045;SDS011;54657;52.022;5.534;2022-12-13T01:59:23;13.43;;;7.80;;
65045;SDS011;54657;52.022;5.534;2022-12-13T02:01:51;16.05;;;8.20;;
65045;SDS011;54657;52.022;5.534;2022-12-13T02:04:18;16.35;;;8.18;;
65045;SDS011;54657;52.022;5.534;2022-12-13T02:06:50;13.82;;;7.72;;
65045;SDS011;54657;52.022;5.534;2022-12-13T02:09:17;15.35;;;8.57;;
65045;SDS011;54657;52.022;5.534;2022-12-13T02:11:44;16.27;;;8.40;;
65045;SDS011;54657;52.022;5.534;2022-12-13T02:14:10;17.23;;;8.50;;
65045;SDS011;54657;52.022;5.534;2022-12-13T02:22:21;15.93;;;7.70;;
65045;SDS011;54657;52.022;5.534;2022-12-13T02:31:04;16.50;;;7.90;;
65045;SDS011;54657;52.022;5.534;2022-12-13T02:33:42;18.67;;;8.43;;
65045;SDS011;54657;52.022;5.534;2022-12-13T02:38:58;16.70;;;8.85;;
65045;SDS011;54657;52.022;5.534;2022-12-13T02:41:58;14.98;;;7.70;;
65045;SDS011;54657;52.022;5.534;2022-12-13T02:44:30;13.30;;;7.90;;
65045;SDS011;54657;52.022;5.534;2022-12-13T02:47:02;17.80;;;8.33;;
65045;SDS011;54657;52.022;5.534;2022-12-13T02:49:32;17.80;;;9.18;;
65045;SDS011;54657;52.022;5.534;2022-12-13T02:52:00;17.90;;;9.00;;
65045;SDS011;54657;52.022;5.534;2022-12-13T02:54:27;16.83;;;8.40;;
65045;SDS011;54657;52.022;5.534;2022-12-13T02:56:57;13.95;;;7.28;;
65045;SDS011;54657;52.022;5.534;2022-12-13T02:59:24;18.52;;;9.25;;
65045;SDS011;54657;52.022;5.534;2022-12-13T03:10:42;17.33;;;8.20;;
65045;SDS011;54657;52.022;5.534;2022-12-13T03:13:25;14.30;;;7.82;;
65045;SDS011;54657;52.022;5.534;2022-12-13T03:16:09;17.83;;;9.45;;
65045;SDS011;54657;52.022;5.534;2022-12-13T03:18:43;15.70;;;7.75;;
65045;SDS011;54657;52.022;5.534;2022-12-13T03:21:10;17.23;;;9.18;;
65045;SDS011;54657;52.022;5.534;2022-12-13T03:23:36;16.98;;;8.50;;
65045;SDS011;54657;52.022;5.534;2022-12-13T03:26:07;15.07;;;8.13;;
65045;SDS011;54657;52.022;5.534;2022-12-13T03:28:36;18.70;;;8.73;;
65045;SDS011;54657;52.022;5.534;2022-12-13T03:31:02;17.23;;;8.88;;
65045;SDS011;54657;52.022;5.534;2022-12-13T03:33:28;17.27;;;8.45;;
65045;SDS011;54657;52.022;5.534;2022-12-13T03:35:54;14.80;;;7.47;;
65045;SDS011;54657;52.022;5.534;2022-12-13T03:38:20;15.85;;;8.00;;
65045;SDS011;54657;52.022;5.534;2022-12-13T03:40:45;17.55;;;8.60;;
65045;SDS011;54657;52.022;5.534;2022-12-13T03:43:11;13.70;;;8.20;;
65045;SDS011;54657;52.022;5.534;2022-12-13T03:45:37;18.23;;;8.13;;
65045;SDS011;54657;52.022;5.534;2022-12-13T03:48:02;15.52;;;7.57;;
65045;SDS011;54657;52.022;5.534;2022-12-13T03:50:28;15.85;;;8.13;;
65045;SDS011;54657;52.022;5.534;2022-12-13T03:52:57;17.42;;;8.60;;
65045;SDS011;54657;52.022;5.534;2022-12-13T03:55:24;19.10;;;8.40;;
65045;SDS011;54657;52.022;5.534;2022-12-13T03:57:50;16.15;;;8.13;;
65045;SDS011;54657;52.022;5.534;2022-12-13T04:00:15;14.52;;;8.82;;
65045;SDS011;54657;52.022;5.534;2022-12-13T04:02:41;19.35;;;7.85;;
65045;SDS011;54657;52.022;5.534;2022-12-13T04:05:06;16.45;;;8.43;;
65045;SDS011;54657;52.022;5.534;2022-12-13T04:07:32;14.77;;;9.00;;
65045;SDS011;54657;52.022;5.534;2022-12-13T04:09:58;21.42;;;9.65;;
65045;SDS011;54657;52.022;5.534;2022-12-13T04:12:23;20.80;;;8.38;;
65045;SDS011;54657;52.022;5.534;2022-12-13T04:15:07;21.65;;;8.82;;
65045;SDS011;54657;52.022;5.534;2022-12-13T04:17:33;17.00;;;8.50;;
65045;SDS011;54657;52.022;5.534;2022-12-13T04:19:59;17.52;;;8.10;;
65045;SDS011;54657;52.022;5.534;2022-12-13T04:22:25;15.65;;;8.32;;
65045;SDS011;54657;52.022;5.534;2022-12-13T04:24:50;19.30;;;8.98;;
65045;SDS011;54657;52.022;5.534;2022-12-13T04:27:16;16.20;;;8.85;;
65045;SDS011;54657;52.022;5.534;2022-12-13T04:29:41;12.82;;;7.40;;
65045;SDS011;54657;52.022;5.534;2022-12-13T04:32:07;15.70;;;8.43;;
65045;SDS011;54657;52.022;5.534;2022-12-13T04:34:32;19.92;;;8.88;;
65045;SDS011;54657;52.022;5.534;2022-12-13T04:36:58;18.73;;;8.85;;
65045;SDS011;54657;52.022;5.534;2022-12-13T04:39:24;15.05;;;8.00;;
65045;SDS011;54657;52.022;5.534;2022-12-13T04:41:50;13.43;;;7.93;;
65045;SDS011;54657;52.022;5.534;2022-12-13T04:44:17;13.35;;;8.35;;
65045;SDS011;54657;52.022;5.534;2022-12-13T04:46:42;15.05;;;7.85;;
65045;SDS011;54657;52.022;5.534;2022-12-13T04:49:08;14.85;;;7.82;;
65045;SDS011;54657;52.022;5.534;2022-12-13T04:51:33;18.45;;;9.00;;
65045;SDS011;54657;52.022;5.534;2022-12-13T04:53:59;19.50;;;8.52;;
65045;SDS011;54657;52.022;5.534;2022-12-13T04:56:24;15.35;;;8.73;;
65045;SDS011;54657;52.022;5.534;2022-12-13T04:58:50;15.45;;;8.48;;
65045;SDS011;54657;52.022;5.534;2022-12-13T05:01:15;15.80;;;8.45;;
65045;SDS011;54657;52.022;5.534;2022-12-13T05:03:41;16.77;;;8.93;;
65045;SDS011;54657;52.022;5.534;2022-12-13T05:06:07;15.55;;;8.63;;
65045;SDS011;54657;52.022;5.534;2022-12-13T05:08:36;17.55;;;8.60;;
65045;SDS011;54657;52.022;5.534;2022-12-13T05:11:05;17.85;;;9.23;;
65045;SDS011;54657;52.022;5.534;2022-12-13T05:13:32;16.65;;;8.35;;
65045;SDS011;54657;52.022;5.534;2022-12-13T05:16:02;18.58;;;8.77;;
65045;SDS011;54657;52.022;5.534;2022-12-13T05:18:30;20.98;;;9.60;;
65045;SDS011;54657;52.022;5.534;2022-12-13T05:20:55;17.80;;;8.85;;
65045;SDS011;54657;52.022;5.534;2022-12-13T05:23:25;18.27;;;9.68;;
65045;SDS011;54657;52.022;5.534;2022-12-13T05:25:50;21.92;;;10.75;;
65045;SDS011;54657;52.022;5.534;2022-12-13T05:28:16;21.70;;;10.50;;
65045;SDS011;54657;52.022;5.534;2022-12-13T05:30:42;20.15;;;10.20;;
65045;SDS011;54657;52.022;5.534;2022-12-13T05:33:08;18.70;;;10.45;;
65045;SDS011;54657;52.022;5.534;2022-12-13T05:35:36;22.75;;;12.07;;
65045;SDS011;54657;52.022;5.534;2022-12-13T05:38:02;22.90;;;11.93;;
65045;SDS011;54657;52.022;5.534;2022-12-13T05:40:29;24.92;;;12.73;;
65045;SDS011;54657;52.022;5.534;2022-12-13T05:42:56;22.42;;;12.68;;
65045;SDS011;54657;52.022;5.534;2022-12-13T05:45:21;25.33;;;12.57;;
65045;SDS011;54657;52.022;5.534;2022-12-13T05:47:48;25.60;;;11.77;;
65045;SDS011;54657;52.022;5.534;2022-12-13T05:50:14;25.38;;;13.25;;
65045;SDS011;54657;52.022;5.534;2022-12-13T05:52:42;21.38;;;12.05;;
65045;SDS011;54657;52.022;5.534;2022-12-13T05:55:08;21.67;;;12.00;;
65045;SDS011;54657;52.022;5.534;2022-12-13T05:57:34;26.75;;;12.38;;
65045;SDS011;54657;52.022;5.534;2022-12-13T06:00:00;23.60;;;11.70;;
65045;SDS011;54657;52.022;5.534;2022-12-13T06:02:26;27.08;;;11.77;;
65045;SDS011;54657;52.022;5.534;2022-12-13T06:04:51;24.98;;;12.30;;
65045;SDS011;54657;52.022;5.534;2022-12-13T06:07:17;21.60;;;10.57;;
65045;SDS011;54657;52.022;5.534;2022-12-13T06:09:43;36.92;;;17.67;;
65045;SDS011;54657;52.022;5.534;2022-12-13T06:12:08;25.73;;;12.63;;
65045;SDS011;54657;52.022;5.534;2022-12-13T06:14:34;24.88;;;12.30;;
65045;SDS011;54657;52.022;5.534;2022-12-13T06:17:00;22.55;;;11.90;;
65045;SDS011;54657;52.022;5.534;2022-12-13T06:19:26;23.88;;;11.57;;
65045;SDS011;54657;52.022;5.534;2022-12-13T06:21:52;21.13;;;10.73;;
65045;SDS011;54657;52.022;5.534;2022-12-13T06:24:19;24.52;;;11.13;;
65045;SDS011;54657;52.022;5.534;2022-12-13T06:26:46;20.05;;;10.82;;
65045;SDS011;54657;52.022;5.534;2022-12-13T06:29:13;23.95;;;10.82;;
65045;SDS011;54657;52.022;5.534;2022-12-13T06:31:39;19.13;;;11.60;;
65045;SDS011;54657;52.022;5.534;2022-12-13T06:34:05;19.50;;;11.13;;
65045;SDS011;54657;52.022;5.534;2022-12-13T06:36:30;22.75;;;12.15;;
65045;SDS011;54657;52.022;5.534;2022-12-13T06:39:00;24.25;;;12.20;;
65045;SDS011;54657;52.022;5.534;2022-12-13T06:41:26;26.23;;;12.25;;
65045;SDS011;54657;52.022;5.534;2022-12-13T06:43:53;28.88;;;12.40;;
65045;SDS011;54657;52.022;5.534;2022-12-13T06:46:18;21.38;;;11.65;;
65045;SDS011;54657;52.022;5.534;2022-12-13T06:48:44;23.20;;;10.88;;
65045;SDS011;54657;52.022;5.534;2022-12-13T06:51:10;23.38;;;12.40;;
65045;SDS011;54657;52.022;5.534;2022-12-13T06:53:36;21.92;;;11.45;;
65045;SDS011;54657;52.022;5.534;2022-12-13T06:56:04;22.05;;;11.82;;
65045;SDS011;54657;52.022;5.534;2022-12-13T06:58:31;23.90;;;11.57;;
65045;SDS011;54657;52.022;5.534;2022-12-13T07:01:30;21.17;;;10.95;;
65045;SDS011;54657;52.022;5.534;2022-12-13T07:03:49;26.85;;;12.43;;
65045;SDS011;54657;52.022;5.534;2022-12-13T07:06:16;28.25;;;12.40;;
65045;SDS011;54657;52.022;5.534;2022-12-13T07:08:46;19.25;;;10.38;;
65045;SDS011;54657;52.022;5.534;2022-12-13T07:11:14;23.63;;;11.93;;
65045;SDS011;54657;52.022;5.534;2022-12-13T07:13:41;24.35;;;12.00;;
65045;SDS011;54657;52.022;5.534;2022-12-13T07:16:07;24.85;;;12.50;;
65045;SDS011;54657;52.022;5.534;2022-12-13T07:18:33;24.42;;;11.32;;
65045;SDS011;54657;52.022;5.534;2022-12-13T07:20:58;27.23;;;12.43;;
65045;SDS011;54657;52.022;5.534;2022-12-13T07:23:24;23.95;;;12.00;;
65045;SDS011;54657;52.022;5.534;2022-12-13T07:25:50;22.80;;;11.23;;
65045;SDS011;54657;52.022;5.534;2022-12-13T07:28:17;24.90;;;11.80;;
65045;SDS011;54657;52.022;5.534;2022-12-13T07:30:44;22.38;;;11.43;;
65045;SDS011;54657;52.022;5.534;2022-12-13T07:33:10;23.50;;;10.98;;
65045;SDS011;54657;52.022;5.534;2022-12-13T07:35:36;24.00;;;11.27;;
65045;SDS011;54657;52.022;5.534;2022-12-13T07:38:02;24.05;;;13.05;;
65045;SDS011;54657;52.022;5.534;2022-12-13T07:40:28;18.67;;;11.23;;
65045;SDS011;54657;52.022;5.534;2022-12-13T07:42:54;18.88;;;10.70;;
65045;SDS011;54657;52.022;5.534;2022-12-13T07:45:21;21.92;;;12.13;;
65045;SDS011;54657;52.022;5.534;2022-12-13T07:47:47;23.33;;;10.77;;
65045;SDS011;54657;52.022;5.534;2022-12-13T07:50:13;17.88;;;10.63;;
65045;SDS011;54657;52.022;5.534;2022-12-13T07:52:39;28.33;;;11.98;;
65045;SDS011;54657;52.022;5.534;2022-12-13T07:55:05;25.05;;;11.98;;
65045;SDS011;54657;52.022;5.534;2022-12-13T07:57:31;25.58;;;12.05;;
65045;SDS011;54657;52.022;5.534;2022-12-13T07:59:57;22.23;;;11.27;;
65045;SDS011;54657;52.022;5.534;2022-12-13T08:02:22;22.45;;;10.65;;
65045;SDS011;54657;52.022;5.534;2022-12-13T08:04:48;19.27;;;10.63;;
65045;SDS011;54657;52.022;5.534;2022-12-13T08:07:14;22.63;;;11.30;;
65045;SDS011;54657;52.022;5.534;2022-12-13T08:09:39;21.67;;;11.13;;
65045;SDS011;54657;52.022;5.534;2022-12-13T08:12:05;20.85;;;11.48;;
65045;SDS011;54657;52.022;5.534;2022-12-13T08:14:31;17.70;;;10.00;;
65045;SDS011;54657;52.022;5.534;2022-12-13T08:16:57;21.92;;;10.55;;
65045;SDS011;54657;52.022;5.534;2022-12-13T08:19:22;21.30;;;11.75;;
65045;SDS011;54657;52.022;5.534;2022-12-13T08:21:48;51.97;;;17.95;;
65045;SDS011;54657;52.022;5.534;2022-12-13T08:24:16;67.45;;;23.42;;
65045;SDS011;54657;52.022;5.534;2022-12-13T08:26:42;45.38;;;18.52;;
65045;SDS011;54657;52.022;5.534;2022-12-13T08:29:07;31.70;;;13.80;;
65045;SDS011;54657;52.022;5.534;2022-12-13T08:31:33;35.60;;;14.50;;
65045;SDS011;54657;52.022;5.534;2022-12-13T08:33:59;30.10;;;13.40;;
65045;SDS011;54657;52.022;5.534;2022-12-13T08:36:24;27.38;;;12.35;;
65045;SDS011;54657;52.022;5.534;2022-12-13T08:38:50;21.13;;;11.25;;
65045;SDS011;54657;52.022;5.534;2022-12-13T08:41:18;18.52;;;10.85;;
65045;SDS011;54657;52.022;5.534;2022-12-13T08:43:44;26.67;;;11.85;;
65045;SDS011;54657;52.022;5.534;2022-12-13T08:46:10;22.63;;;12.02;;
65045;SDS011;54657;52.022;5.534;2022-12-13T08:48:36;22.27;;;11.63;;
65045;SDS011;54657;52.022;5.534;2022-12-13T08:51:02;26.30;;;12.85;;
65045;SDS011;54657;52.022;5.534;2022-12-13T08:53:30;34.63;;;14.73;;
65045;SDS011;54657;52.022;5.534;2022-12-13T08:55:59;29.80;;;13.90;;
65045;SDS011;54657;52.022;5.534;2022-12-13T08:58:25;26.63;;;13.35;;
65045;SDS011;54657;52.022;5.534;2022-12-13T09:00:51;28.40;;;14.32;;
65045;SDS011;54657;52.022;5.534;2022-12-13T09:03:17;28.10;;;12.30;;
65045;SDS011;54657;52.022;5.534;2022-12-13T09:05:42;25.08;;;12.90;;
65045;SDS011;54657;52.022;5.534;2022-12-13T09:08:08;27.35;;;13.85;;
65045;SDS011;54657;52.022;5.534;2022-12-13T09:10:34;25.00;;;12.98;;
65045;SDS011;54657;52.022;5.534;2022-12-13T09:13:00;25.90;;;12.82;;
65045;SDS011;54657;52.022;5.534;2022-12-13T09:15:26;23.27;;;12.40;;
65045;SDS011;54657;52.022;5.534;2022-12-13T09:17:53;20.90;;;12.15;;
65045;SDS011;54657;52.022;5.534;2022-12-13T09:20:19;29.58;;;14.68;;
65045;SDS011;54657;52.022;5.534;2022-12-13T09:22:45;26.23;;;14.85;;
65045;SDS011;54657;52.022;5.534;2022-12-13T09:25:10;26.38;;;14.43;;
65045;SDS011;54657;52.022;5.534;2022-12-13T09:27:36;26.30;;;14.52;;
65045;SDS011;54657;52.022;5.534;2022-12-13T09:30:02;27.73;;;15.07;;
65045;SDS011;54657;52.022;5.534;2022-12-13T09:32:29;26.25;;;14.25;;
65045;SDS011;54657;52.022;5.534;2022-12-13T09:34:55;27.30;;;14.25;;
65045;SDS011;54657;52.022;5.534;2022-12-13T09:37:21;28.05;;;12.85;;
65045;SDS011;54657;52.022;5.534;2022-12-13T09:39:47;23.27;;;13.15;;
65045;SDS011;54657;52.022;5.534;2022-12-13T09:42:17;26.80;;;12.98;;
65045;SDS011;54657;52.022;5.534;2022-12-13T09:44:53;27.58;;;13.07;;
65045;SDS011;54657;52.022;5.534;2022-12-13T09:47:25;23.00;;;12.55;;
65045;SDS011;54657;52.022;5.534;2022-12-13T09:49:57;26.60;;;13.93;;
65045;SDS011;54657;52.022;5.534;2022-12-13T09:52:26;23.02;;;13.57;;
65045;SDS011;54657;52.022;5.534;2022-12-13T09:54:59;32.35;;;15.73;;
65045;SDS011;54657;52.022;5.534;2022-12-13T09:57:26;26.27;;;15.25;;
65045;SDS011;54657;52.022;5.534;2022-12-13T09:59:54;30.85;;;14.57;;
65045;SDS011;54657;52.022;5.534;2022-12-13T10:02:22;28.05;;;15.38;;
65045;SDS011;54657;52.022;5.534;2022-12-13T10:04:51;30.13;;;15.27;;
65045;SDS011;54657;52.022;5.534;2022-12-13T10:07:21;34.92;;;15.68;;
65045;SDS011;54657;52.022;5.534;2022-12-13T10:09:48;26.08;;;14.00;;
65045;SDS011;54657;52.022;5.534;2022-12-13T10:12:22;31.65;;;16.40;;
65045;SDS011;54657;52.022;5.534;2022-12-13T10:14:49;28.52;;;14.82;;
65045;SDS011;54657;52.022;5.534;2022-12-13T10:17:18;29.20;;;15.70;;
65045;SDS011;54657;52.022;5.534;2022-12-13T10:19:47;30.30;;;15.73;;
65045;SDS011;54657;52.022;5.534;2022-12-13T10:22:17;32.25;;;16.85;;
65045;SDS011;54657;52.022;5.534;2022-12-13T10:24:52;27.73;;;16.05;;
65045;SDS011;54657;52.022;5.534;2022-12-13T10:35:26;26.90;;;15.27;;
65045;SDS011;54657;52.022;5.534;2022-12-13T10:37:54;32.58;;;16.90;;
65045;SDS011;54657;52.022;5.534;2022-12-13T10:40:25;28.88;;;16.13;;
65045;SDS011;54657;52.022;5.534;2022-12-13T10:43:19;32.20;;;16.80;;
65045;SDS011;54657;52.022;5.534;2022-12-13T10:48:23;31.48;;;15.23;;
65045;SDS011;54657;52.022;5.534;2022-12-13T10:50:56;30.67;;;16.20;;
65045;SDS011;54657;52.022;5.534;2022-12-13T10:53:34;33.00;;;16.08;;
65045;SDS011;54657;52.022;5.534;2022-12-13T10:56:04;29.77;;;15.02;;
65045;SDS011;54657;52.022;5.534;2022-12-13T10:58:40;30.15;;;16.23;;
65045;SDS011;54657;52.022;5.534;2022-12-13T11:01:22;35.00;;;16.33;;
65045;SDS011;54657;52.022;5.534;2022-12-13T11:04:03;35.03;;;15.82;;
65045;SDS011;54657;52.022;5.534;2022-12-13T11:06:43;30.63;;;16.60;;
65045;SDS011;54657;52.022;5.534;2022-12-13T11:09:13;28.40;;;15.18;;
65045;SDS011;54657;52.022;5.534;2022-12-13T11:11:53;30.50;;;16.38;;
65045;SDS011;54657;52.022;5.534;2022-12-13T11:14:23;31.33;;;16.90;;
65045;SDS011;54657;52.022;5.534;2022-12-13T11:16:55;33.67;;;16.98;;
65045;SDS011;54657;52.022;5.534;2022-12-13T11:19:35;32.22;;;16.13;;
65045;SDS011;54657;52.022;5.534;2022-12-13T11:22:02;39.80;;;18.70;;
65045;SDS011;54657;52.022;5.534;2022-12-13T11:24:32;35.47;;;17.08;;
65045;SDS011;54657;52.022;5.534;2022-12-13T11:27:02;33.97;;;17.35;;
65045;SDS011;54657;52.022;5.534;2022-12-13T11:35:30;31.13;;;16.98;;
65045;SDS011;54657;52.022;5.534;2022-12-13T11:38:15;31.75;;;17.05;;
65045;SDS011;54657;52.022;5.534;2022-12-13T11:40:55;31.40;;;16.20;;
65045;SDS011;54657;52.022;5.534;2022-12-13T11:43:36;28.60;;;15.95;;
65045;SDS011;54657;52.022;5.534;2022-12-13T11:46:12;29.75;;;17.65;;
65045;SDS011;54657;52.022;5.534;2022-12-13T11:48:45;30.90;;;16.25;;
65045;SDS011;54657;52.022;5.534;2022-12-13T11:51:18;31.80;;;16.35;;
65045;SDS011;54657;52.022;5.534;2022-12-13T11:53:54;28.05;;;15.10;;
65045;SDS011;54657;52.022;5.534;2022-12-13T11:56:32;27.52;;;15.45;;
65045;SDS011;54657;52.022;5.534;2022-12-13T12:01:53;29.25;;;15.23;;
65045;SDS011;54657;52.022;5.534;2022-12-13T12:04:33;27.10;;;14.13;;
65045;SDS011;54657;52.022;5.534;2022-12-13T12:07:10;24.42;;;13.52;;
65045;SDS011;54657;52.022;5.534;2022-12-13T12:09:39;27.55;;;14.68;;
65045;SDS011;54657;52.022;5.534;2022-12-13T12:12:17;26.40;;;14.52;;
65045;SDS011;54657;52.022;5.534;2022-12-13T12:17:44;24.02;;;14.60;;
65045;SDS011;54657;52.022;5.534;2022-12-13T12:20:14;31.90;;;15.43;;
65045;SDS011;54657;52.022;5.534;2022-12-13T12:23:10;29.05;;;15.43;;
65045;SDS011;54657;52.022;5.534;2022-12-13T12:25:43;28.77;;;15.52;;
65045;SDS011;54657;52.022;5.534;2022-12-13T12:31:13;29.10;;;14.85;;
65045;SDS011;54657;52.022;5.534;2022-12-13T12:36:45;29.15;;;15.52;;
65045;SDS011;54657;52.022;5.534;2022-12-13T12:58:01;25.90;;;14.48;;
65045;SDS011;54657;52.022;5.534;2022-12-13T13:00:29;25.90;;;14.38;;
65045;SDS011;54657;52.022;5.534;2022-12-13T13:03:17;28.58;;;14.10;;
65045;SDS011;54657;52.022;5.534;2022-12-13T13:05:56;27.63;;;14.95;;
65045;SDS011;54657;52.022;5.534;2022-12-13T13:11:23;24.77;;;14.52;;
65045;SDS011;54657;52.022;5.534;2022-12-13T13:16:43;27.92;;;15.07;;
65045;SDS011;54657;52.022;5.534;2022-12-13T13:26:32;26.67;;;13.65;;
65045;SDS011;54657;52.022;5.534;2022-12-13T13:29:34;22.05;;;12.60;;
65045;SDS011;54657;52.022;5.534;2022-12-13T13:34:25;27.75;;;14.85;;
65045;SDS011;54657;52.022;5.534;2022-12-13T13:36:52;27.88;;;13.68;;
65045;SDS011;54657;52.022;5.534;2022-12-13T13:49:53;26.38;;;14.77;;
65045;SDS011;54657;52.022;5.534;2022-12-13T13:55:41;30.33;;;15.70;;
65045;SDS011;54657;52.022;5.534;2022-12-13T14:04:08;28.90;;;15.05;;
65045;SDS011;54657;52.022;5.534;2022-12-13T14:29:33;25.45;;;13.38;;
65045;SDS011;54657;52.022;5.534;2022-12-13T14:32:07;27.67;;;14.38;;
65045;SDS011;54657;52.022;5.534;2022-12-13T14:34:35;21.67;;;13.27;;
65045;SDS011;54657;52.022;5.534;2022-12-13T14:37:05;23.42;;;13.55;;
65045;SDS011;54657;52.022;5.534;2022-12-13T14:39:43;26.98;;;14.50;;
65045;SDS011;54657;52.022;5.534;2022-12-13T14:47:53;23.02;;;13.00;;
65045;SDS011;54657;52.022;5.534;2022-12-13T14:50:20;23.90;;;13.93;;
65045;SDS011;54657;52.022;5.534;2022-12-13T14:52:48;27.33;;;14.20;;
65045;SDS011;54657;52.022;5.534;2022-12-13T14:57:57;24.00;;;14.07;;
65045;SDS011;54657;52.022;5.534;2022-12-13T15:00:26;24.88;;;12.80;;
65045;SDS011;54657;52.022;5.534;2022-12-13T15:03:04;23.88;;;13.88;;
65045;SDS011;54657;52.022;5.534;2022-12-13T15:07:58;26.35;;;13.95;;
65045;SDS011;54657;52.022;5.534;2022-12-13T15:10:44;26.45;;;14.00;;
65045;SDS011;54657;52.022;5.534;2022-12-13T15:16:05;26.00;;;13.60;;
65045;SDS011;54657;52.022;5.534;2022-12-13T15:18:35;26.50;;;13.57;;
65045;SDS011;54657;52.022;5.534;2022-12-13T15:21:02;23.27;;;13.05;;
65045;SDS011;54657;52.022;5.534;2022-12-13T15:23:46;25.77;;;13.73;;
65045;SDS011;54657;52.022;5.534;2022-12-13T15:26:14;25.30;;;13.60;;
65045;SDS011;54657;52.022;5.534;2022-12-13T15:28:49;23.55;;;13.63;;
65045;SDS011;54657;52.022;5.534;2022-12-13T15:31:18;27.55;;;14.60;;
65045;SDS011;54657;52.022;5.534;2022-12-13T15:33:44;26.15;;;13.90;;
65045;SDS011;54657;52.022;5.534;2022-12-13T15:41:19;27.98;;;14.23;;
65045;SDS011;54657;52.022;5.534;2022-12-13T15:43:48;24.48;;;12.98;;
65045;SDS011;54657;52.022;5.534;2022-12-13T15:46:27;24.85;;;13.25;;
65045;SDS011;54657;52.022;5.534;2022-12-13T15:48:56;25.42;;;13.80;;
65045;SDS011;54657;52.022;5.534;2022-12-13T15:51:23;29.38;;;15.35;;
65045;SDS011;54657;52.022;5.534;2022-12-13T15:53:59;21.52;;;11.93;;
65045;SDS011;54657;52.022;5.534;2022-12-13T15:59:29;29.80;;;15.00;;
65045;SDS011;54657;52.022;5.534;2022-12-13T16:02:00;24.73;;;13.63;;
65045;SDS011;54657;52.022;5.534;2022-12-13T16:04:28;27.83;;;15.25;;
65045;SDS011;54657;52.022;5.534;2022-12-13T16:06:57;27.35;;;13.38;;
65045;SDS011;54657;52.022;5.534;2022-12-13T16:09:25;29.33;;;13.25;;
65045;SDS011;54657;52.022;5.534;2022-12-13T16:11:54;28.08;;;14.63;;
65045;SDS011;54657;52.022;5.534;2022-12-13T16:16:55;28.00;;;14.93;;
65045;SDS011;54657;52.022;5.534;2022-12-13T16:26:10;26.23;;;14.85;;
65045;SDS011;54657;52.022;5.534;2022-12-13T16:28:37;31.67;;;15.40;;
65045;SDS011;54657;52.022;5.534;2022-12-13T16:31:25;27.77;;;14.18;;
65045;SDS011;54657;52.022;5.534;2022-12-13T16:33:51;26.85;;;15.25;;
65045;SDS011;54657;52.022;5.534;2022-12-13T16:36:17;28.65;;;16.52;;
65045;SDS011;54657;52.022;5.534;2022-12-13T16:38:43;29.92;;;15.95;;
65045;SDS011;54657;52.022;5.534;2022-12-13T16:41:08;30.35;;;15.30;;
65045;SDS011;54657;52.022;5.534;2022-12-13T16:43:36;31.63;;;15.27;;
65045;SDS011;54657;52.022;5.534;2022-12-13T16:46:08;31.30;;;17.27;;
65045;SDS011;54657;52.022;5.534;2022-12-13T16:48:36;32.15;;;16.00;;
65045;SDS011;54657;52.022;5.534;2022-12-13T16:51:02;32.55;;;17.42;;
65045;SDS011;54657;52.022;5.534;2022-12-13T16:53:29;31.63;;;16.00;;
65045;SDS011;54657;52.022;5.534;2022-12-13T16:55:55;31.90;;;15.55;;
65045;SDS011;54657;52.022;5.534;2022-12-13T16:58:20;26.83;;;14.50;;
65045;SDS011;54657;52.022;5.534;2022-12-13T17:00:47;25.45;;;13.43;;
65045;SDS011;54657;52.022;5.534;2022-12-13T17:03:13;28.08;;;14.05;;
65045;SDS011;54657;52.022;5.534;2022-12-13T17:05:39;24.98;;;13.27;;
65045;SDS011;54657;52.022;5.534;2022-12-13T17:08:08;25.83;;;13.93;;
65045;SDS011;54657;52.022;5.534;2022-12-13T17:10:37;29.10;;;14.25;;
65045;SDS011;54657;52.022;5.534;2022-12-13T17:13:03;28.02;;;13.85;;
65045;SDS011;54657;52.022;5.534;2022-12-13T17:15:28;29.17;;;14.77;;